createdAt,value
2018-04-19T00:00:52.483Z,53.47
2018-04-19T00:01:52.667Z,71.78
2018-04-19T00:02:52.854Z,62.74
2018-04-19T00:03:53.041Z,57.37
2018-04-19T00:04:53.230Z,63.23
2018-04-19T00:05:53.423Z,66.16
2018-04-19T00:06:53.607Z,56.64
2018-04-19T00:07:53.794Z,60.79
2018-04-19T00:08:53.979Z,60.06
2018-04-19T00:09:54.166Z,58.84
2018-04-19T00:10:54.354Z,60.30
2018-04-19T00:11:54.572Z,59.57
2018-04-19T00:12:54.730Z,59.08
2018-04-19T00:13:54.917Z,58.35
2018-04-19T00:14:55.105Z,57.37
2018-04-19T00:15:55.293Z,57.13
2018-04-19T00:16:55.482Z,56.15
2018-04-19T00:17:55.668Z,58.35
2018-04-19T00:18:55.854Z,62.50
2018-04-19T00:19:56.040Z,58.59
2018-04-19T00:20:56.229Z,61.77
2018-04-19T00:21:56.415Z,59.08
2018-04-19T00:22:56.604Z,60.30
2018-04-19T00:23:56.788Z,60.55
2018-04-19T00:24:56.976Z,61.28
2018-04-19T00:25:57.164Z,56.40
2018-04-19T00:26:57.352Z,55.91
2018-04-19T00:27:57.540Z,55.91
2018-04-19T00:28:57.728Z,59.08
2018-04-19T00:29:57.916Z,62.74
2018-04-19T00:30:58.104Z,57.37
2018-04-19T00:31:58.293Z,59.08
2018-04-19T00:32:58.480Z,56.88
2018-04-19T00:33:58.668Z,57.62
2018-04-19T00:34:58.856Z,64.21
2018-04-19T00:35:59.043Z,62.26
2018-04-19T00:36:59.232Z,56.88
2018-04-19T00:37:59.418Z,57.86
2018-04-19T00:38:59.606Z,57.37
2018-04-19T00:39:59.792Z,57.13
2018-04-19T00:40:59.979Z,57.62
2018-04-19T00:42:00.166Z,59.33
2018-04-19T00:43:00.354Z,57.13
2018-04-19T00:44:00.540Z,57.62
2018-04-19T00:45:00.730Z,56.64
2018-04-19T00:46:00.917Z,58.35
2018-04-19T00:47:01.103Z,68.12
2018-04-19T00:48:01.290Z,58.84
2018-04-19T00:49:01.479Z,62.74
2018-04-19T00:50:01.667Z,61.52
2018-04-19T00:51:01.856Z,64.21
2018-04-19T00:52:02.039Z,64.94
2018-04-19T00:53:02.226Z,62.26
2018-04-19T00:54:02.413Z,64.45
2018-04-19T00:55:02.599Z,59.33
2018-04-19T00:56:02.788Z,62.01
2018-04-19T00:57:02.976Z,60.55
2018-04-19T00:58:03.161Z,59.08
2018-04-19T00:59:03.348Z,61.04
2018-04-19T01:00:03.535Z,57.62
2018-04-19T01:01:03.721Z,57.86
2018-04-19T01:02:03.910Z,59.08
2018-04-19T01:03:04.097Z,71.53
2018-04-19T01:04:04.284Z,62.74
2018-04-19T01:05:04.472Z,64.21
2018-04-19T01:06:04.659Z,56.88
2018-04-19T01:07:04.846Z,56.64
2018-04-19T01:08:05.033Z,59.08
2018-04-19T01:09:05.219Z,59.08
2018-04-19T01:10:05.408Z,59.33
2018-04-19T01:11:05.600Z,57.86
2018-04-19T01:12:05.782Z,58.84
2018-04-19T01:13:05.966Z,59.81
2018-04-19T01:14:06.156Z,60.06
2018-04-19T01:15:06.340Z,58.59
2018-04-19T01:16:06.527Z,56.15
2018-04-19T01:17:06.714Z,59.33
2018-04-19T01:18:06.899Z,60.06
2018-04-19T01:19:07.089Z,57.62
2018-04-19T01:20:07.276Z,63.96
2018-04-19T01:21:07.462Z,62.74
2018-04-19T01:22:07.648Z,58.11
2018-04-19T01:23:07.836Z,58.11
2018-04-19T01:24:08.024Z,56.88
2018-04-19T01:25:08.218Z,59.81
2018-04-19T01:26:08.400Z,60.55
2018-04-19T01:27:08.582Z,65.92
2018-04-19T01:28:08.769Z,64.94
2018-04-19T01:29:08.957Z,60.30
2018-04-19T01:30:09.144Z,61.04
2018-04-19T01:31:09.332Z,62.26
2018-04-19T01:32:09.520Z,58.59
2018-04-19T01:33:09.707Z,58.59
2018-04-19T01:34:09.893Z,58.59
2018-04-19T01:35:10.085Z,59.33
2018-04-19T01:36:10.267Z,60.55
2018-04-19T01:37:10.453Z,60.55
2018-04-19T01:38:10.641Z,65.92
2018-04-19T01:39:10.830Z,60.79
2018-04-19T01:40:11.016Z,62.01
2018-04-19T01:41:11.203Z,59.08
2018-04-19T01:42:11.390Z,59.33
2018-04-19T01:43:11.577Z,59.81
2018-04-19T01:44:11.764Z,62.74
2018-04-19T01:45:11.951Z,62.99
2018-04-19T01:46:12.137Z,62.01
2018-04-19T01:47:12.325Z,61.04
2018-04-19T01:48:12.517Z,58.84
2018-04-19T01:49:12.701Z,62.26
2018-04-19T01:50:12.888Z,62.50
2018-04-19T01:51:13.073Z,60.06
2018-04-19T01:52:13.262Z,62.74
2018-04-19T01:53:13.449Z,65.43
2018-04-19T01:54:13.635Z,62.01
2018-04-19T01:55:13.822Z,60.79
2018-04-19T01:56:14.010Z,61.77
2018-04-19T01:57:14.195Z,60.79
2018-04-19T01:58:14.384Z,57.37
2018-04-19T01:59:14.571Z,63.96
2018-04-19T02:00:14.754Z,60.55
2018-04-19T02:01:14.943Z,60.55
2018-04-19T02:02:15.131Z,60.79
2018-04-19T02:03:15.317Z,60.06
2018-04-19T02:04:15.504Z,60.55
2018-04-19T02:05:15.688Z,57.62
2018-04-19T02:06:15.876Z,58.84
2018-04-19T02:07:16.062Z,56.15
2018-04-19T02:08:16.249Z,57.13
2018-04-19T02:09:16.436Z,57.86
2018-04-19T02:10:16.623Z,58.59
2018-04-19T02:11:16.808Z,62.50
2018-04-19T02:12:16.997Z,60.06
2018-04-19T02:13:17.183Z,58.59
2018-04-19T02:14:17.370Z,60.30
2018-04-19T02:15:17.558Z,57.86
2018-04-19T02:16:17.745Z,58.84
2018-04-19T02:17:17.933Z,59.08
2018-04-19T02:18:18.122Z,53.96
2018-04-19T02:19:18.305Z,60.55
2018-04-19T02:20:18.494Z,56.40
2018-04-19T02:21:18.683Z,63.72
2018-04-19T02:22:18.876Z,62.01
2018-04-19T02:23:19.056Z,62.50
2018-04-19T02:24:19.243Z,58.59
2018-04-19T02:25:19.431Z,59.08
2018-04-19T02:26:19.616Z,57.86
2018-04-19T02:27:19.804Z,58.35
2018-04-19T02:28:19.994Z,60.30
2018-04-19T02:29:20.180Z,58.35
2018-04-19T02:30:20.367Z,61.52
2018-04-19T02:31:20.552Z,59.81
2018-04-19T02:32:20.739Z,57.62
2018-04-19T02:33:20.928Z,57.62
2018-04-19T02:34:21.113Z,57.37
2018-04-19T02:35:21.301Z,57.13
2018-04-19T02:36:21.488Z,57.62
2018-04-19T02:37:21.676Z,58.59
2018-04-19T02:38:21.862Z,59.81
2018-04-19T02:39:22.049Z,58.35
2018-04-19T02:40:22.235Z,58.35
2018-04-19T02:41:22.420Z,57.37
2018-04-19T02:42:22.607Z,59.33
2018-04-19T02:43:22.795Z,58.11
2018-04-19T02:44:22.980Z,60.55
2018-04-19T02:45:23.169Z,59.57
2018-04-19T02:46:23.358Z,61.04
2018-04-19T02:47:23.539Z,60.79
2018-04-19T02:48:23.727Z,63.96
2018-04-19T02:49:23.915Z,62.74
2018-04-19T02:50:24.100Z,61.77
2018-04-19T02:51:24.287Z,61.52
2018-04-19T02:52:24.475Z,63.48
2018-04-19T02:53:24.663Z,64.21
2018-04-19T02:54:24.853Z,64.21
2018-04-19T02:55:25.036Z,63.48
2018-04-19T02:56:25.224Z,63.48
2018-04-19T02:57:25.409Z,63.23
2018-04-19T02:58:25.596Z,63.23
2018-04-19T02:59:25.783Z,64.94
2018-04-19T03:00:25.973Z,62.74
2018-04-19T03:01:26.157Z,63.48
2018-04-19T03:02:26.341Z,62.01
2018-04-19T03:03:26.529Z,62.50
2018-04-19T03:04:26.714Z,61.77
2018-04-19T03:05:26.905Z,63.23
2018-04-19T03:06:27.087Z,61.77
2018-04-19T03:07:27.275Z,60.79
2018-04-19T03:08:27.461Z,62.26
2018-04-19T03:09:27.646Z,61.04
2018-04-19T03:10:27.831Z,62.74
2018-04-19T03:11:28.018Z,63.23
2018-04-19T03:12:28.238Z,65.19
2018-04-19T03:13:28.395Z,61.52
2018-04-19T03:14:28.579Z,60.79
2018-04-19T03:15:28.765Z,62.01
2018-04-19T03:16:28.956Z,71.04
2018-04-19T03:17:29.139Z,60.79
2018-04-19T03:18:29.326Z,64.94
2018-04-19T03:19:29.513Z,70.80
2018-04-19T03:20:29.749Z,66.65
2018-04-19T03:21:29.889Z,63.48
2018-04-19T03:22:30.072Z,63.23
2018-04-19T03:23:30.261Z,63.23
2018-04-19T03:24:30.447Z,66.89
2018-04-19T03:25:30.635Z,67.38
2018-04-19T03:26:30.825Z,65.43
2018-04-19T03:27:31.011Z,61.77
2018-04-19T03:28:31.193Z,62.99
2018-04-19T03:29:31.381Z,64.70
2018-04-19T03:30:31.568Z,64.45
2018-04-19T03:31:31.754Z,64.45
2018-04-19T03:32:31.941Z,64.94
2018-04-19T03:33:32.124Z,64.21
2018-04-19T03:34:32.313Z,67.14
2018-04-19T03:35:32.553Z,66.16
2018-04-19T03:36:32.685Z,68.60
2018-04-19T03:37:32.873Z,68.60
2018-04-19T03:38:33.062Z,68.36
2018-04-19T03:39:33.245Z,69.58
2018-04-19T03:40:33.432Z,64.45
2018-04-19T03:41:33.618Z,65.92
2018-04-19T03:42:33.806Z,67.14
2018-04-19T03:43:33.993Z,61.28
2018-04-19T03:44:34.180Z,62.26
2018-04-19T03:45:34.366Z,64.45
2018-04-19T03:46:34.555Z,64.45
2018-04-19T03:47:34.737Z,62.99
2018-04-19T03:48:34.975Z,63.23
2018-04-19T03:49:35.110Z,62.99
2018-04-19T03:50:35.297Z,68.60
2018-04-19T03:51:35.483Z,62.74
2018-04-19T03:52:35.672Z,62.26
2018-04-19T03:53:35.855Z,62.26
2018-04-19T03:54:36.041Z,62.01
2018-04-19T03:55:36.228Z,63.23
2018-04-19T03:56:36.413Z,62.99
2018-04-19T03:57:36.599Z,62.99
2018-04-19T03:58:36.790Z,61.04
2018-04-19T03:59:36.975Z,63.96
2018-04-19T04:00:37.161Z,62.50
2018-04-19T04:01:37.347Z,64.21
2018-04-19T04:02:37.533Z,65.43
2018-04-19T04:03:37.719Z,63.96
2018-04-19T04:04:37.905Z,63.72
2018-04-19T04:05:38.090Z,61.77
2018-04-19T04:06:38.278Z,61.52
2018-04-19T04:07:38.463Z,62.99
2018-04-19T04:08:38.651Z,64.45
2018-04-19T04:09:38.837Z,64.94
2018-04-19T04:10:39.025Z,69.09
2018-04-19T04:11:39.212Z,64.21
2018-04-19T04:12:39.396Z,65.67
2018-04-19T04:13:39.583Z,66.65
2018-04-19T04:14:39.772Z,66.89
2018-04-19T04:15:39.961Z,67.14
2018-04-19T04:16:40.145Z,67.63
2018-04-19T04:17:40.332Z,66.41
2018-04-19T04:18:40.518Z,66.65
2018-04-19T04:19:40.705Z,63.96
2018-04-19T04:20:40.892Z,64.70
2018-04-19T04:21:41.078Z,64.21
2018-04-19T04:22:41.262Z,62.01
2018-04-19T04:23:41.448Z,61.77
2018-04-19T04:24:41.636Z,61.52
2018-04-19T04:25:41.823Z,66.41
2018-04-19T04:26:42.008Z,62.74
2018-04-19T04:27:42.195Z,64.21
2018-04-19T04:28:42.382Z,67.63
2018-04-19T04:29:42.570Z,63.48
2018-04-19T04:30:42.755Z,63.48
2018-04-19T04:31:42.941Z,63.23
2018-04-19T04:32:43.129Z,63.23
2018-04-19T04:33:43.314Z,62.01
2018-04-19T04:34:43.501Z,62.74
2018-04-19T04:35:43.689Z,62.26
2018-04-19T04:36:43.875Z,65.67
2018-04-19T04:37:44.064Z,72.51
2018-04-19T04:38:44.253Z,67.87
2018-04-19T04:39:44.440Z,63.23
2018-04-19T04:40:44.627Z,62.50
2018-04-19T04:41:44.815Z,62.99
2018-04-19T04:42:45.000Z,61.52
2018-04-19T04:43:45.189Z,61.77
2018-04-19T04:44:45.374Z,64.94
2018-04-19T04:45:45.560Z,62.74
2018-04-19T04:46:45.750Z,62.99
2018-04-19T04:47:45.940Z,65.43
2018-04-19T04:48:46.124Z,69.34
2018-04-19T04:49:46.312Z,62.99
2018-04-19T04:50:46.497Z,63.72
2018-04-19T04:51:46.686Z,63.48
2018-04-19T04:52:46.874Z,62.50
2018-04-19T04:53:47.063Z,61.52
2018-04-19T04:54:47.250Z,64.45
2018-04-19T04:55:47.439Z,69.09
2018-04-19T04:56:47.627Z,65.43
2018-04-19T04:57:47.816Z,66.16
2018-04-19T04:58:48.004Z,62.99
2018-04-19T04:59:48.192Z,61.77
2018-04-19T05:00:48.380Z,63.96
2018-04-19T05:01:48.570Z,62.50
2018-04-19T05:02:48.759Z,63.48
2018-04-19T05:03:48.955Z,62.26
2018-04-19T05:04:49.139Z,63.23
2018-04-19T05:05:49.332Z,63.48
2018-04-19T05:06:49.520Z,63.23
2018-04-19T05:07:49.710Z,62.26
2018-04-19T05:08:49.901Z,63.96
2018-04-19T05:09:50.094Z,68.85
2018-04-19T05:10:50.283Z,65.67
2018-04-19T05:11:50.474Z,64.70
2018-04-19T05:12:50.666Z,64.45
2018-04-19T05:13:50.857Z,64.94
2018-04-19T05:14:51.046Z,63.72
2018-04-19T05:15:51.236Z,64.21
2018-04-19T05:16:51.427Z,62.74
2018-04-19T05:17:51.621Z,61.77
2018-04-19T05:18:51.814Z,62.74
2018-04-19T05:19:52.005Z,62.74
2018-04-19T05:20:52.199Z,62.50
2018-04-19T05:21:52.390Z,65.92
2018-04-19T05:22:52.585Z,63.48
2018-04-19T05:23:52.777Z,63.23
2018-04-19T05:24:52.969Z,65.19
2018-04-19T05:25:53.166Z,63.72
2018-04-19T05:26:53.356Z,62.50
2018-04-19T05:27:53.550Z,64.94
2018-04-19T05:28:53.743Z,66.89
2018-04-19T05:29:53.938Z,62.74
2018-04-19T05:30:54.137Z,63.23
2018-04-19T05:31:54.328Z,62.01
2018-04-19T05:32:54.524Z,64.21
2018-04-19T05:33:54.720Z,61.28
2018-04-19T05:34:54.917Z,62.26
2018-04-19T05:35:55.112Z,62.74
2018-04-19T05:36:55.309Z,68.60
2018-04-19T05:37:55.505Z,61.52
2018-04-19T05:38:55.702Z,62.50
2018-04-19T05:39:55.898Z,61.52
2018-04-19T05:40:56.098Z,62.01
2018-04-19T05:41:56.293Z,62.01
2018-04-19T05:42:56.490Z,62.74
2018-04-19T05:43:56.690Z,63.72
2018-04-19T05:44:56.885Z,62.74
2018-04-19T05:45:57.084Z,63.23
2018-04-19T05:46:57.280Z,63.72
2018-04-19T05:47:57.477Z,63.23
2018-04-19T05:48:57.677Z,67.14
2018-04-19T05:49:57.874Z,62.50
2018-04-19T05:50:58.074Z,62.50
2018-04-19T05:51:58.271Z,66.16
2018-04-19T05:52:58.470Z,62.50
2018-04-19T05:53:58.672Z,61.04
2018-04-19T05:54:58.871Z,61.52
2018-04-19T05:55:59.071Z,63.23
2018-04-19T05:56:59.270Z,72.75
2018-04-19T05:57:59.472Z,63.96
2018-04-19T05:58:59.671Z,63.48
2018-04-19T05:59:59.872Z,61.77
2018-04-19T06:01:00.076Z,61.04
2018-04-19T06:02:00.272Z,60.55
2018-04-19T06:03:00.477Z,59.81
2018-04-19T06:04:00.677Z,60.55
2018-04-19T06:05:00.874Z,62.74
2018-04-19T06:06:01.078Z,61.77
2018-04-19T06:07:01.279Z,60.30
2018-04-19T06:08:01.483Z,60.79
2018-04-19T06:09:01.683Z,61.04
2018-04-19T06:10:01.886Z,61.52
2018-04-19T06:11:02.097Z,62.50
2018-04-19T06:12:02.292Z,61.28
2018-04-19T06:13:02.492Z,61.28
2018-04-19T06:14:02.694Z,60.06
2018-04-19T06:15:02.905Z,60.79
2018-04-19T06:16:03.201Z,59.33
2018-04-19T06:17:03.280Z,80.32
2018-04-19T06:18:03.485Z,63.23
2018-04-19T06:19:03.689Z,60.06
2018-04-19T06:20:03.897Z,74.46
2018-04-19T06:21:04.097Z,62.50
2018-04-19T06:22:04.302Z,62.74
2018-04-19T06:23:04.506Z,59.08
2018-04-19T06:24:04.710Z,59.81
2018-04-19T06:25:04.914Z,59.81
2018-04-19T06:26:05.118Z,62.01
2018-04-19T06:27:05.322Z,61.04
2018-04-19T06:28:05.530Z,61.04
2018-04-19T06:29:05.733Z,60.06
2018-04-19T06:30:05.938Z,61.77
2018-04-19T06:31:06.144Z,62.01
2018-04-19T06:32:06.349Z,77.64
2018-04-19T06:33:06.556Z,62.50
2018-04-19T06:34:06.761Z,63.96
2018-04-19T06:35:06.967Z,62.74
2018-04-19T06:36:07.209Z,60.79
2018-04-19T06:37:07.376Z,61.28
2018-04-19T06:38:07.584Z,71.04
2018-04-19T06:39:07.791Z,60.79
2018-04-19T06:40:07.994Z,59.08
2018-04-19T06:41:08.202Z,90.82
2018-04-19T06:42:08.406Z,63.48
2018-04-19T06:43:08.598Z,63.72
2018-04-19T06:44:08.819Z,60.79
2018-04-19T06:45:09.024Z,61.52
2018-04-19T06:46:09.230Z,69.58
2018-04-19T06:47:09.435Z,62.26
2018-04-19T06:48:09.642Z,61.28
2018-04-19T06:49:09.848Z,81.54
2018-04-19T06:50:10.055Z,62.01
2018-04-19T06:51:10.263Z,60.55
2018-04-19T06:52:10.469Z,59.81
2018-04-19T06:53:10.676Z,61.04
2018-04-19T06:54:10.883Z,58.84
2018-04-19T06:55:11.089Z,60.30
2018-04-19T06:56:11.295Z,68.12
2018-04-19T06:57:11.501Z,61.28
2018-04-19T06:58:11.711Z,58.11
2018-04-19T06:59:11.915Z,58.84
2018-04-19T07:00:12.123Z,61.77
2018-04-19T07:01:12.329Z,61.04
2018-04-19T07:02:12.534Z,58.11
2018-04-19T07:03:12.745Z,60.30
2018-04-19T07:04:12.947Z,59.81
2018-04-19T07:05:13.155Z,57.62
2018-04-19T07:06:13.361Z,59.33
2018-04-19T07:07:13.570Z,59.81
2018-04-19T07:08:13.779Z,63.23
2018-04-19T07:09:13.983Z,56.40
2018-04-19T07:10:14.188Z,56.15
2018-04-19T07:11:14.396Z,64.94
2018-04-19T07:12:14.604Z,67.63
2018-04-19T07:13:14.815Z,58.11
2018-04-19T07:14:15.016Z,59.08
2018-04-19T07:15:15.224Z,59.81
2018-04-19T07:16:15.431Z,59.08
2018-04-19T07:17:15.638Z,57.37
2018-04-19T07:18:15.846Z,61.04
2018-04-19T07:19:16.054Z,60.06
2018-04-19T07:20:16.257Z,61.28
2018-04-19T07:21:16.464Z,60.79
2018-04-19T07:22:16.669Z,58.35
2018-04-19T07:23:16.876Z,57.37
2018-04-19T07:24:17.083Z,59.33
2018-04-19T07:25:17.290Z,56.88
2018-04-19T07:26:17.498Z,58.35
2018-04-19T07:27:17.705Z,59.33
2018-04-19T07:28:17.914Z,54.93
2018-04-19T07:29:18.121Z,56.15
2018-04-19T07:30:18.330Z,56.40
2018-04-19T07:31:18.533Z,56.40
2018-04-19T07:32:18.756Z,55.91
2018-04-19T07:33:18.947Z,55.66
2018-04-19T07:34:19.155Z,56.40
2018-04-19T07:35:19.362Z,55.42
2018-04-19T07:36:19.571Z,56.88
2018-04-19T07:37:19.778Z,54.44
2018-04-19T07:38:19.985Z,55.91
2018-04-19T07:39:20.194Z,57.13
2018-04-19T07:40:20.401Z,56.40
2018-04-19T07:41:20.613Z,57.37
2018-04-19T07:42:20.816Z,54.93
2018-04-19T07:43:21.021Z,54.44
2018-04-19T07:44:21.233Z,60.30
2018-04-19T07:45:21.439Z,58.11
2018-04-19T07:46:21.649Z,57.13
2018-04-19T07:47:21.854Z,55.18
2018-04-19T07:48:22.062Z,55.18
2018-04-19T07:49:22.269Z,55.91
2018-04-19T07:50:22.479Z,63.23
2018-04-19T07:51:22.685Z,53.96
2018-04-19T07:52:22.892Z,56.64
2018-04-19T07:53:23.101Z,56.64
2018-04-19T07:54:23.309Z,55.42
2018-04-19T07:55:23.517Z,54.93
2018-04-19T07:56:23.724Z,52.73
2018-04-19T07:57:23.934Z,53.71
2018-04-19T07:58:24.139Z,53.22
2018-04-19T07:59:24.347Z,53.47
2018-04-19T08:00:24.553Z,53.71
2018-04-19T08:01:24.762Z,55.18
2018-04-19T08:02:24.968Z,53.47
2018-04-19T08:03:25.175Z,55.18
2018-04-19T08:04:25.417Z,53.96
2018-04-19T08:05:25.599Z,53.71
2018-04-19T08:06:25.797Z,58.11
2018-04-19T08:07:26.005Z,60.06
2018-04-19T08:08:26.217Z,53.96
2018-04-19T08:09:26.423Z,54.44
2018-04-19T08:10:26.628Z,58.11
2018-04-19T08:11:26.858Z,60.79
2018-04-19T08:12:27.042Z,54.44
2018-04-19T08:13:27.247Z,54.93
2018-04-19T08:14:27.456Z,52.25
2018-04-19T08:15:27.662Z,52.25
2018-04-19T08:16:27.870Z,52.49
2018-04-19T08:17:28.073Z,52.00
2018-04-19T08:18:28.286Z,58.59
2018-04-19T08:19:28.486Z,57.13
2018-04-19T08:20:28.693Z,62.74
2018-04-19T08:21:28.900Z,62.50
2018-04-19T08:22:29.106Z,54.93
2018-04-19T08:23:29.312Z,56.64
2018-04-19T08:24:29.531Z,52.73
2018-04-19T08:25:29.724Z,53.47
2018-04-19T08:26:29.929Z,61.04
2018-04-19T08:27:30.135Z,53.47
2018-04-19T08:28:30.340Z,52.25
2018-04-19T08:29:30.544Z,52.49
2018-04-19T08:30:30.749Z,53.96
2018-04-19T08:31:30.956Z,52.98
2018-04-19T08:32:31.161Z,53.96
2018-04-19T08:33:31.366Z,54.69
2018-04-19T08:34:31.572Z,51.51
2018-04-19T08:35:31.777Z,50.29
2018-04-19T08:36:31.985Z,50.54
2018-04-19T08:37:32.187Z,54.44
2018-04-19T08:38:32.393Z,49.56
2018-04-19T08:39:32.598Z,51.51
2018-04-19T08:40:32.804Z,47.61
2018-04-19T08:41:33.009Z,48.10
2018-04-19T08:42:33.217Z,48.34
2018-04-19T08:43:33.423Z,50.05
2018-04-19T08:44:33.686Z,52.73
2018-04-19T08:45:33.832Z,54.93
2018-04-19T08:46:34.037Z,53.22
2018-04-19T08:47:34.244Z,50.78
2018-04-19T08:48:34.448Z,52.25
2018-04-19T08:49:34.653Z,50.54
2018-04-19T08:50:34.867Z,52.00
2018-04-19T08:51:35.065Z,47.61
2018-04-19T08:52:35.269Z,49.80
2018-04-19T08:53:35.475Z,47.36
2018-04-19T08:54:35.680Z,48.10
2018-04-19T08:55:35.888Z,48.34
2018-04-19T08:56:36.087Z,56.15
2018-04-19T08:57:36.295Z,56.64
2018-04-19T08:58:36.497Z,56.64
2018-04-19T08:59:36.702Z,52.25
2018-04-19T09:00:36.907Z,48.10
2018-04-19T09:01:37.111Z,49.07
2018-04-19T09:02:37.317Z,48.83
2018-04-19T09:03:37.520Z,50.54
2018-04-19T09:04:37.726Z,49.80
2018-04-19T09:05:37.931Z,61.52
2018-04-19T09:06:38.136Z,50.78
2018-04-19T09:07:38.343Z,50.78
2018-04-19T09:08:38.549Z,54.20
2018-04-19T09:09:38.752Z,48.10
2018-04-19T09:10:38.956Z,48.58
2018-04-19T09:11:39.161Z,48.83
2018-04-19T09:12:39.368Z,45.41
2018-04-19T09:13:39.571Z,47.12
2018-04-19T09:14:39.776Z,45.17
2018-04-19T09:15:39.979Z,46.63
2018-04-19T09:16:40.186Z,49.07
2018-04-19T09:17:40.392Z,43.95
2018-04-19T09:18:40.594Z,47.36
2018-04-19T09:19:40.800Z,48.34
2018-04-19T09:20:41.010Z,45.65
2018-04-19T09:21:41.209Z,46.63
2018-04-19T09:22:41.415Z,60.30
2018-04-19T09:23:41.621Z,49.32
2018-04-19T09:24:41.822Z,52.98
2018-04-19T09:25:42.031Z,54.69
2018-04-19T09:26:42.259Z,57.37
2018-04-19T09:27:42.437Z,56.15
2018-04-19T09:28:42.640Z,59.57
2018-04-19T09:29:42.846Z,62.26
2018-04-19T09:30:43.054Z,55.66
2018-04-19T09:31:43.264Z,55.42
2018-04-19T09:32:43.460Z,58.35
2018-04-19T09:33:43.664Z,48.34
2018-04-19T09:34:43.870Z,57.13
2018-04-19T09:35:44.074Z,49.80
2018-04-19T09:36:44.277Z,53.22
2018-04-19T09:37:44.481Z,48.34
2018-04-19T09:38:44.687Z,51.03
2018-04-19T09:39:44.887Z,44.92
2018-04-19T09:40:45.091Z,49.07
2018-04-19T09:41:45.295Z,48.58
2018-04-19T09:42:45.497Z,51.03
2018-04-19T09:43:45.701Z,47.85
2018-04-19T09:44:45.903Z,54.44
2018-04-19T09:45:46.106Z,49.80
2018-04-19T09:46:46.315Z,49.56
2018-04-19T09:47:46.511Z,49.80
2018-04-19T09:48:46.712Z,59.33
2018-04-19T09:49:46.914Z,52.25
2018-04-19T09:50:47.121Z,52.00
2018-04-19T09:51:47.320Z,64.94
2018-04-19T09:52:47.522Z,47.85
2018-04-19T09:53:47.758Z,47.36
2018-04-19T09:54:47.926Z,45.41
2018-04-19T09:55:48.128Z,47.61
2018-04-19T09:56:48.328Z,48.34
2018-04-19T09:57:48.530Z,63.72
2018-04-19T09:58:48.728Z,43.95
2018-04-19T09:59:48.930Z,43.21
2018-04-19T10:00:49.133Z,45.17
2018-04-19T10:01:49.337Z,49.32
2018-04-19T10:02:49.540Z,51.03
2018-04-19T10:03:49.742Z,45.90
2018-04-19T10:04:49.943Z,50.05
2018-04-19T10:05:50.146Z,49.32
2018-04-19T10:06:50.348Z,48.58
2018-04-19T10:07:50.549Z,57.62
2018-04-19T10:08:50.748Z,61.52
2018-04-19T10:09:50.950Z,59.08
2018-04-19T10:10:51.152Z,46.63
2018-04-19T10:11:51.353Z,43.95
2018-04-19T10:12:51.554Z,56.64
2018-04-19T10:13:51.757Z,57.62
2018-04-19T10:14:51.959Z,45.90
2018-04-19T10:15:52.176Z,45.90
2018-04-19T10:16:52.359Z,52.25
2018-04-19T10:17:52.566Z,52.00
2018-04-19T10:18:52.762Z,44.19
2018-04-19T10:19:52.965Z,56.88
2018-04-19T10:20:53.164Z,57.62
2018-04-19T10:21:53.365Z,50.05
2018-04-19T10:22:53.566Z,48.83
2018-04-19T10:23:53.770Z,64.70
2018-04-19T10:24:53.970Z,62.01
2018-04-19T10:25:54.173Z,63.72
2018-04-19T10:26:54.373Z,55.42
2018-04-19T10:27:54.571Z,65.19
2018-04-19T10:28:54.771Z,64.70
2018-04-19T10:29:54.971Z,69.34
2018-04-19T10:30:55.171Z,55.66
2018-04-19T10:31:55.370Z,52.49
2018-04-19T10:32:55.572Z,57.62
2018-04-19T10:33:55.770Z,59.81
2018-04-19T10:34:55.971Z,65.92
2018-04-19T10:35:56.170Z,63.96
2018-04-19T10:36:56.369Z,65.19
2018-04-19T10:37:56.568Z,63.48
2018-04-19T10:38:56.769Z,49.32
2018-04-19T10:39:56.967Z,50.29
2018-04-19T10:40:57.170Z,59.81
2018-04-19T10:41:57.365Z,77.15
2018-04-19T10:42:57.566Z,70.31
2018-04-19T10:43:57.767Z,64.70
2018-04-19T10:44:57.966Z,59.57
2018-04-19T10:45:58.164Z,59.57
2018-04-19T10:46:58.363Z,56.64
2018-04-19T10:47:58.562Z,66.41
2018-04-19T10:48:58.760Z,66.89
2018-04-19T10:49:58.963Z,59.08
2018-04-19T10:50:59.161Z,56.88
2018-04-19T10:51:59.361Z,57.86
2018-04-19T10:52:59.560Z,62.50
2018-04-19T10:53:59.759Z,61.77
2018-04-19T10:54:59.965Z,66.41
2018-04-19T10:56:00.160Z,66.65
2018-04-19T10:57:00.359Z,64.45
2018-04-19T10:58:00.558Z,60.55
2018-04-19T10:59:00.764Z,62.01
2018-04-19T11:00:00.959Z,74.22
2018-04-19T11:01:01.163Z,62.74
2018-04-19T11:02:01.358Z,61.77
2018-04-19T11:03:01.558Z,59.33
2018-04-19T11:04:01.767Z,60.06
2018-04-19T11:05:01.966Z,64.70
2018-04-19T11:06:02.166Z,54.93
2018-04-19T11:07:02.366Z,49.56
2018-04-19T11:08:02.566Z,53.47
2018-04-19T11:09:02.765Z,57.86
2018-04-19T11:10:02.962Z,57.37
2018-04-19T11:11:03.160Z,62.50
2018-04-19T11:12:03.360Z,55.91
2018-04-19T11:13:03.557Z,63.72
2018-04-19T11:14:03.758Z,68.60
2018-04-19T11:15:03.957Z,49.07
2018-04-19T11:16:04.156Z,51.03
2018-04-19T11:17:04.356Z,54.93
2018-04-19T11:18:04.555Z,53.71
2018-04-19T11:19:04.752Z,51.03
2018-04-19T11:20:04.953Z,62.26
2018-04-19T11:21:05.151Z,60.30
2018-04-19T11:22:05.348Z,54.93
2018-04-19T11:23:05.549Z,49.32
2018-04-19T11:24:05.744Z,61.77
2018-04-19T11:25:05.942Z,64.70
2018-04-19T11:26:06.141Z,62.26
2018-04-19T11:27:06.339Z,65.67
2018-04-19T11:28:06.538Z,59.57
2018-04-19T11:29:06.737Z,65.19
2018-04-19T11:30:06.935Z,55.42
2018-04-19T11:31:07.133Z,55.42
2018-04-19T11:32:07.328Z,61.28
2018-04-19T11:33:07.526Z,65.19
2018-04-19T11:34:07.724Z,50.78
2018-04-19T11:35:07.932Z,54.69
2018-04-19T11:36:08.120Z,58.35
2018-04-19T11:37:08.320Z,63.96
2018-04-19T11:38:08.518Z,53.47
2018-04-19T11:39:08.717Z,62.50
2018-04-19T11:40:08.916Z,53.47
2018-04-19T11:41:09.113Z,52.49
2018-04-19T11:42:09.311Z,54.93
2018-04-19T11:43:09.511Z,57.86
2018-04-19T11:44:09.704Z,48.34
2018-04-19T11:45:09.905Z,45.90
2018-04-19T11:46:10.104Z,58.59
2018-04-19T11:47:10.296Z,47.12
2018-04-19T11:48:10.494Z,55.18
2018-04-19T11:49:10.692Z,57.86
2018-04-19T11:50:10.888Z,55.91
2018-04-19T11:51:11.085Z,57.13
2018-04-19T11:52:11.281Z,47.12
2018-04-19T11:53:11.480Z,46.14
2018-04-19T11:54:11.678Z,57.62
2018-04-19T11:55:11.875Z,51.03
2018-04-19T11:56:12.073Z,60.79
2018-04-19T11:57:12.269Z,56.40
2018-04-19T11:58:12.467Z,61.28
2018-04-19T11:59:12.663Z,65.92
2018-04-19T12:00:12.861Z,55.42
2018-04-19T12:01:13.092Z,47.85
2018-04-19T12:02:13.263Z,50.54
2018-04-19T12:03:13.452Z,51.27
2018-04-19T12:04:13.648Z,56.40
2018-04-19T12:05:13.844Z,58.84
2018-04-19T12:06:14.043Z,58.35
2018-04-19T12:07:14.242Z,70.07
2018-04-19T12:08:14.438Z,63.23
2018-04-19T12:09:14.636Z,66.41
2018-04-19T12:10:14.834Z,52.98
2018-04-19T12:11:15.029Z,64.70
2018-04-19T12:12:15.261Z,52.25
2018-04-19T12:13:15.424Z,49.80
2018-04-19T12:14:15.622Z,58.35
2018-04-19T12:15:15.818Z,70.07
2018-04-19T12:16:16.017Z,73.97
2018-04-19T12:17:16.214Z,70.07
2018-04-19T12:18:16.410Z,60.55
2018-04-19T12:19:16.658Z,49.80
2018-04-19T12:20:16.802Z,58.59
2018-04-19T12:21:16.999Z,51.51
2018-04-19T12:22:17.195Z,50.78
2018-04-19T12:23:17.392Z,61.52
2018-04-19T12:24:17.590Z,59.81
2018-04-19T12:25:17.788Z,67.63
2018-04-19T12:26:17.981Z,65.43
2018-04-19T12:27:18.181Z,49.32
2018-04-19T12:28:18.374Z,52.73
2018-04-19T12:29:18.571Z,52.25
2018-04-19T12:30:18.771Z,45.65
2018-04-19T12:31:18.971Z,50.54
2018-04-19T12:32:19.163Z,51.03
2018-04-19T12:33:19.360Z,45.90
2018-04-19T12:34:19.594Z,48.34
2018-04-19T12:35:19.750Z,51.76
2018-04-19T12:36:19.945Z,52.25
2018-04-19T12:37:20.140Z,55.42
2018-04-19T12:38:20.337Z,75.20
2018-04-19T12:39:20.535Z,50.05
2018-04-19T12:40:20.732Z,47.36
2018-04-19T12:41:20.928Z,51.27
2018-04-19T12:42:21.126Z,64.94
2018-04-19T12:43:21.320Z,55.66
2018-04-19T12:44:21.518Z,53.47
2018-04-19T12:45:21.717Z,50.29
2018-04-19T12:46:21.912Z,49.56
2018-04-19T12:47:22.109Z,54.44
2018-04-19T12:48:22.306Z,77.64
2018-04-19T12:49:22.505Z,74.71
2018-04-19T12:50:22.701Z,65.67
2018-04-19T12:51:22.899Z,73.24
2018-04-19T12:52:23.094Z,81.54
2018-04-19T12:53:23.292Z,70.56
2018-04-19T12:54:23.490Z,68.60
2018-04-19T12:55:23.688Z,71.29